createdAt,value
2022-11-21T00:01:29.621Z,98948.81
2022-11-21T00:03:56.607Z,98952.22
2022-11-21T00:06:23.978Z,98951.88
2022-11-21T00:08:51.310Z,98948.38
2022-11-21T00:11:18.897Z,98942.13
2022-11-21T00:13:45.911Z,98936.38
2022-11-21T00:16:15.398Z,98925.47
2022-11-21T00:18:44.510Z,98925.66
2022-11-21T00:21:17.071Z,98927.06
2022-11-21T00:23:45.784Z,98915.28
2022-11-21T00:26:14.432Z,98912.00
2022-11-21T00:28:42.017Z,98909.47
2022-11-21T00:31:10.227Z,98905.06
2022-11-21T00:33:39.098Z,98899.47
2022-11-21T00:36:09.967Z,98896.66
2022-11-21T00:38:37.654Z,98909.91
2022-11-21T00:41:08.290Z,98904.09
2022-11-21T00:43:35.424Z,98907.56
2022-11-21T00:46:03.427Z,98905.97
2022-11-21T00:48:31.731Z,98906.41
2022-11-21T00:51:00.672Z,98901.06
2022-11-21T00:53:28.881Z,98899.94
2022-11-21T00:55:56.516Z,98891.22
2022-11-21T00:58:23.650Z,98893.09
2022-11-21T01:00:51.066Z,98885.69
2022-11-21T01:03:20.361Z,98892.28
2022-11-21T01:05:47.597Z,98883.16
2022-11-21T01:08:14.518Z,98880.81
2022-11-21T01:10:41.761Z,98879.25
2022-11-21T01:13:11.363Z,98865.81
2022-11-21T01:15:38.660Z,98845.16
2022-11-21T01:18:05.926Z,98846.31
2022-11-21T01:20:33.146Z,98853.91
2022-11-21T01:23:00.050Z,98856.25
2022-11-21T01:25:27.509Z,98862.91
2022-11-21T01:27:54.465Z,98852.22
2022-11-21T01:30:21.711Z,98858.59
2022-11-21T01:32:50.148Z,98855.78
2022-11-21T01:35:18.607Z,98855.22
2022-11-21T01:37:49.631Z,98848.66
2022-11-21T01:40:21.784Z,98849.09
2022-11-21T01:43:02.586Z,98848.34
2022-11-21T01:45:55.843Z,98849.38
2022-11-21T01:48:28.422Z,98846.19
2022-11-21T01:50:59.697Z,98837.41
2022-11-21T01:53:26.921Z,98837.00
2022-11-21T01:55:54.375Z,98834.47
2022-11-21T01:58:22.944Z,98830.16
2022-11-21T02:00:50.784Z,98823.03
2022-11-21T02:03:24.926Z,98827.31
2022-11-21T02:05:54.058Z,98827.13
2022-11-21T02:08:22.413Z,98812.03
2022-11-21T02:11:23.466Z,98816.81
2022-11-21T02:13:53.171Z,98814.38
2022-11-21T02:16:20.420Z,98811.16
2022-11-21T02:18:47.371Z,98802.81
2022-11-21T02:21:29.559Z,98796.50
2022-11-21T02:24:17.291Z,98787.53
2022-11-21T02:26:48.021Z,98785.47
2022-11-21T02:29:18.157Z,98784.63
2022-11-21T02:31:45.415Z,98780.81
2022-11-21T02:34:12.461Z,98785.09
2022-11-21T02:36:45.721Z,98773.97
2022-11-21T02:39:27.289Z,98774.63
2022-11-21T02:42:05.726Z,98764.84
2022-11-21T02:45:08.235Z,98773.03
2022-11-21T02:47:38.662Z,98768.91
2022-11-21T02:50:19.271Z,98767.75
2022-11-21T02:52:46.602Z,98768.63
2022-11-21T02:55:15.355Z,98766.56
2022-11-21T02:57:42.965Z,98761.31
2022-11-21T03:00:11.518Z,98755.88
2022-11-21T03:02:38.914Z,98754.00
2022-11-21T03:05:10.246Z,98759.50
2022-11-21T03:07:37.949Z,98751.16
2022-11-21T03:10:05.773Z,98749.09
2022-11-21T03:12:35.621Z,98758.09
2022-11-21T03:15:03.151Z,98756.31
2022-11-21T03:17:30.348Z,98758.16
2022-11-21T03:19:58.195Z,98763.03
2022-11-21T03:22:28.546Z,98767.41
2022-11-21T03:24:55.490Z,98765.59
2022-11-21T03:27:22.830Z,98770.44
2022-11-21T03:29:49.723Z,98763.38
2022-11-21T03:32:16.980Z,98758.72
2022-11-21T03:34:44.492Z,98745.94
2022-11-21T03:37:11.783Z,98755.88
2022-11-21T03:39:38.735Z,98753.72
2022-11-21T03:42:05.999Z,98756.03
2022-11-21T03:44:35.190Z,98755.63
2022-11-21T03:47:05.190Z,98762.34
2022-11-21T03:49:32.194Z,98764.59
2022-11-21T03:51:59.598Z,98764.88
2022-11-21T03:54:26.815Z,98774.81
2022-11-21T03:56:54.625Z,98765.13
2022-11-21T03:59:21.676Z,98773.38
2022-11-21T04:01:49.063Z,98781.63
2022-11-21T04:04:18.068Z,98780.66
2022-11-21T04:06:48.160Z,98783.47
2022-11-21T04:09:15.119Z,98781.94
2022-11-21T04:11:42.316Z,98786.91
2022-11-21T04:14:09.235Z,98777.03
2022-11-21T04:16:36.798Z,98782.28
2022-11-21T04:19:03.954Z,98782.06
2022-11-21T04:21:31.410Z,98773.97
2022-11-21T04:23:58.478Z,98776.00
2022-11-21T04:26:25.755Z,98778.03
2022-11-21T04:28:52.982Z,98780.53
2022-11-21T04:31:20.341Z,98776.34
2022-11-21T04:33:47.388Z,98782.06
2022-11-21T04:36:14.777Z,98787.31
2022-11-21T04:38:41.748Z,98794.28
2022-11-21T04:41:09.269Z,98790.09
2022-11-21T04:43:36.660Z,98796.59
2022-11-21T04:46:03.985Z,98796.63
2022-11-21T04:48:32.697Z,98800.44
2022-11-21T04:51:00.092Z,98790.22
2022-11-21T04:53:26.996Z,98779.31
2022-11-21T04:55:56.495Z,98773.97
2022-11-21T04:58:23.483Z,98768.94
2022-11-21T05:00:50.821Z,98775.22
2022-11-21T05:03:17.807Z,98767.78
2022-11-21T05:05:47.690Z,98769.81
2022-11-21T05:08:14.681Z,98766.84
2022-11-21T05:11:02.091Z,98764.34
2022-11-21T05:13:29.111Z,98764.09
2022-11-21T05:15:57.534Z,98762.38
2022-11-21T05:18:24.845Z,98766.09
2022-11-21T05:20:52.135Z,98761.88
2022-11-21T05:23:19.211Z,98749.66
2022-11-21T05:25:46.517Z,98751.91
2022-11-21T05:28:13.587Z,98730.69
2022-11-21T05:30:40.831Z,98732.66
2022-11-21T05:33:10.108Z,98738.66
2022-11-21T05:35:42.934Z,98728.16
2022-11-21T05:38:10.624Z,98733.16
2022-11-21T05:40:37.881Z,98729.41
2022-11-21T05:43:23.466Z,98725.66
2022-11-21T05:45:51.192Z,98730.16
2022-11-21T05:48:18.504Z,98717.69
2022-11-21T05:50:49.709Z,98714.69
2022-11-21T05:53:17.192Z,98718.94
2022-11-21T05:55:45.034Z,98721.94
2022-11-21T05:58:12.130Z,98714.47
2022-11-21T06:00:39.756Z,98711.75
2022-11-21T06:03:26.017Z,98710.75
2022-11-21T06:06:08.965Z,98711.25
2022-11-21T06:08:43.292Z,98702.00
2022-11-21T06:11:13.103Z,98708.25
2022-11-21T06:13:40.772Z,98707.47
2022-11-21T06:16:10.584Z,98707.22
2022-11-21T06:18:50.790Z,98695.47
2022-11-21T06:21:28.851Z,98701.13
2022-11-21T06:23:57.608Z,98701.34
2022-11-21T06:26:26.976Z,98705.75
2022-11-21T06:28:55.106Z,98707.66
2022-11-21T06:31:27.188Z,98719.91
2022-11-21T06:33:58.902Z,98721.09
2022-11-21T06:36:26.613Z,98723.34
2022-11-21T06:38:55.255Z,98714.09
2022-11-21T06:41:25.223Z,98719.59
2022-11-21T06:43:52.731Z,98712.59
2022-11-21T06:46:20.173Z,98715.53
2022-11-21T06:48:47.207Z,98710.47
2022-11-21T06:51:20.410Z,98711.34
2022-11-21T06:53:48.799Z,98717.50
2022-11-21T06:56:16.071Z,98719.09
2022-11-21T06:58:45.452Z,98724.56
2022-11-21T07:01:13.601Z,98720.28
2022-11-21T07:03:40.720Z,98714.78
2022-11-21T07:06:10.124Z,98705.38
2022-11-21T07:08:37.342Z,98719.03
2022-11-21T07:13:54.302Z,98716.66
2022-11-21T07:16:26.443Z,98722.63
2022-11-21T07:18:53.819Z,98728.28
2022-11-21T07:21:23.665Z,98718.94
2022-11-21T07:23:50.631Z,98728.59
2022-11-21T07:26:21.010Z,98738.56
2022-11-21T07:28:50.816Z,98713.59
2022-11-21T07:31:18.088Z,98719.59
2022-11-21T07:33:45.793Z,98722.06
2022-11-21T07:36:16.131Z,98728.47
2022-11-21T07:38:43.166Z,98722.91
2022-11-21T07:41:10.612Z,98727.72
2022-11-21T07:43:37.790Z,98742.16
2022-11-21T07:46:05.215Z,98734.22
2022-11-21T07:48:32.298Z,98739.13
2022-11-21T07:50:59.566Z,98739.19
2022-11-21T07:53:28.733Z,98740.91
2022-11-21T07:55:59.057Z,98746.56
2022-11-21T07:58:26.244Z,98750.78
2022-11-21T08:00:53.873Z,98744.25
2022-11-21T08:03:25.324Z,98745.97
2022-11-21T08:05:55.285Z,98737.13
2022-11-21T08:08:22.330Z,98736.53
2022-11-21T08:10:51.489Z,98736.41
2022-11-21T08:13:18.562Z,98730.59
2022-11-21T08:15:45.920Z,98731.28
2022-11-21T08:18:21.077Z,98734.25
2022-11-21T08:20:48.661Z,98723.50
2022-11-21T08:23:16.027Z,98730.94
2022-11-21T08:25:43.858Z,98727.50
2022-11-21T08:28:12.409Z,98737.81
2022-11-21T08:30:40.771Z,98728.19
2022-11-21T08:33:08.408Z,98732.97
2022-11-21T08:35:37.808Z,98734.59
2022-11-21T08:38:09.775Z,98732.03
2022-11-21T08:40:37.127Z,98740.97
2022-11-21T08:43:09.331Z,98740.88
2022-11-21T08:45:38.123Z,98746.84
2022-11-21T08:48:10.766Z,98741.34
2022-11-21T08:50:40.281Z,98736.66
2022-11-21T08:53:07.329Z,98734.09
2022-11-21T08:55:37.254Z,98734.53
2022-11-21T08:58:04.239Z,98729.75
2022-11-21T09:00:31.708Z,98734.03
2022-11-21T09:02:58.634Z,98731.03
2022-11-21T09:05:25.873Z,98730.50
2022-11-21T09:07:59.276Z,98722.97
2022-11-21T09:10:27.606Z,98724.78
2022-11-21T09:12:57.407Z,98728.91
2022-11-21T09:15:43.306Z,98732.72
2022-11-21T09:18:14.155Z,98735.94
2022-11-21T09:20:44.735Z,98730.09
2022-11-21T09:23:14.142Z,98723.91
2022-11-21T09:25:42.464Z,98721.44
2022-11-21T09:28:11.475Z,98722.69
2022-11-21T09:30:42.420Z,98734.47
2022-11-21T09:33:14.576Z,98739.41
2022-11-21T09:35:48.082Z,98733.03
2022-11-21T09:38:17.514Z,98737.34
2022-11-21T09:40:48.884Z,98735.19
2022-11-21T09:43:21.830Z,98720.16
2022-11-21T09:45:59.200Z,98733.28
2022-11-21T09:48:41.517Z,98728.50
2022-11-21T09:51:13.947Z,98715.84
2022-11-21T09:54:07.605Z,98712.53
2022-11-21T09:56:41.219Z,98710.31
2022-11-21T09:59:40.043Z,98712.91
2022-11-21T10:02:16.075Z,98702.06
2022-11-21T10:04:43.242Z,98707.91
2022-11-21T10:07:26.599Z,98713.97
2022-11-21T10:10:24.738Z,98717.22
2022-11-21T10:13:09.441Z,98693.72
2022-11-21T10:16:01.403Z,98702.97
2022-11-21T10:18:47.010Z,98693.22
2022-11-21T10:22:01.994Z,98698.69
2022-11-21T10:24:57.693Z,98692.28
2022-11-21T10:27:36.720Z,98677.22
2022-11-21T10:30:20.700Z,98673.34
2022-11-21T10:32:49.761Z,98666.88
2022-11-21T10:35:29.235Z,98671.41
2022-11-21T10:37:58.198Z,98672.25
2022-11-21T10:40:28.643Z,98685.59
2022-11-21T10:43:32.465Z,98678.44
2022-11-21T10:45:59.787Z,98681.16
2022-11-21T10:48:26.962Z,98671.44
2022-11-21T10:51:18.750Z,98680.66
2022-11-21T10:54:07.756Z,98671.34
2022-11-21T10:56:37.127Z,98674.56
2022-11-21T10:59:19.210Z,98681.06
2022-11-21T11:01:56.148Z,98676.63
2022-11-21T11:04:28.622Z,98671.19
2022-11-21T11:07:00.299Z,98668.22
2022-11-21T11:09:35.099Z,98660.13
2022-11-21T11:12:46.802Z,98668.31
2022-11-21T11:15:23.230Z,98671.25
2022-11-21T11:18:05.622Z,98673.59
2022-11-21T11:20:45.141Z,98669.78
2022-11-21T11:23:25.240Z,98656.41
2022-11-21T11:25:58.491Z,98666.69
2022-11-21T11:28:27.428Z,98665.94
2022-11-21T11:30:55.911Z,98673.16
2022-11-21T11:33:39.928Z,98672.44
2022-11-21T11:36:14.741Z,98672.53
2022-11-21T11:38:59.691Z,98689.97
2022-11-21T11:42:01.858Z,98685.91
2022-11-21T11:45:25.964Z,98675.72
2022-11-21T11:47:58.939Z,98673.47
2022-11-21T11:50:32.599Z,98674.97
2022-11-21T11:53:17.493Z,98674.44
2022-11-21T11:56:00.128Z,98674.88
2022-11-21T11:58:31.833Z,98671.56
2022-11-21T12:01:44.017Z,98672.28
2022-11-21T12:04:18.274Z,98665.72
2022-11-21T12:07:46.680Z,98668.25
2022-11-21T12:09:54.990Z,98662.03
2022-11-21T12:12:47.130Z,98662.97
2022-11-21T12:15:47.025Z,98659.06
2022-11-21T12:18:20.143Z,98650.88
2022-11-21T12:20:56.417Z,98659.38
2022-11-21T12:23:56.036Z,98661.25
2022-11-21T12:26:29.091Z,98659.03
2022-11-21T12:29:24.275Z,98664.97
2022-11-21T12:32:24.826Z,98664.00
2022-11-21T12:35:28.987Z,98673.97
2022-11-21T12:38:07.200Z,98678.03
2022-11-21T12:41:25.726Z,98679.84
2022-11-21T12:44:08.026Z,98672.09
2022-11-21T12:47:23.377Z,98672.50
2022-11-21T12:50:21.856Z,98676.44
2022-11-21T12:53:16.339Z,98679.53
2022-11-21T12:55:43.339Z,98678.28
2022-11-21T12:58:19.714Z,98677.63
2022-11-21T13:01:24.640Z,98678.25
2022-11-21T13:03:59.847Z,98676.78
2022-11-21T13:06:35.491Z,98670.38
2022-11-21T13:09:08.171Z,98672.72
2022-11-21T13:11:59.954Z,98671.25
2022-11-21T13:14:42.311Z,98676.34
2022-11-21T13:17:12.212Z,98678.69
2022-11-21T13:19:50.546Z,98688.00
2022-11-21T13:22:38.078Z,98689.09
2022-11-21T13:25:33.921Z,98680.81
2022-11-21T13:28:21.176Z,98678.38
2022-11-21T13:30:58.122Z,98685.38
2022-11-21T13:33:39.903Z,98677.38
2022-11-21T13:36:13.812Z,98683.13
2022-11-21T13:38:55.702Z,98682.13
2022-11-21T13:41:53.865Z,98681.63
2022-11-21T13:44:33.343Z,98681.53
2022-11-21T13:47:10.489Z,98683.91
2022-11-21T13:49:43.684Z,98678.72
2022-11-21T13:52:20.167Z,98684.53
2022-11-21T13:55:05.868Z,98686.63
2022-11-21T13:57:45.993Z,98681.22
2022-11-21T14:00:25.144Z,98683.59
2022-11-21T14:03:01.161Z,98682.63
2022-11-21T14:05:47.748Z,98686.63
2022-11-21T14:08:26.924Z,98684.06
2022-11-21T14:10:56.101Z,98684.78
2022-11-21T14:13:47.053Z,98692.63
2022-11-21T14:16:19.815Z,98680.94
2022-11-21T14:18:47.664Z,98681.69
2022-11-21T14:21:31.096Z,98685.69
2022-11-21T14:24:04.515Z,98688.28
2022-11-21T14:26:52.549Z,98683.63
2022-11-21T14:29:24.104Z,98684.94
2022-11-21T14:31:51.047Z,98676.75
2022-11-21T14:34:44.742Z,98667.69
2022-11-21T14:37:13.228Z,98666.13
2022-11-21T14:39:44.950Z,98668.50
2022-11-21T14:42:15.340Z,98665.81
2022-11-21T14:44:45.934Z,98665.38
2022-11-21T14:47:21.546Z,98673.72
2022-11-21T14:50:00.870Z,98662.84
2022-11-21T14:52:33.306Z,98655.94
2022-11-21T14:55:34.400Z,98663.28
2022-11-21T14:58:03.864Z,98661.66
2022-11-21T15:01:03.211Z,98660.25
2022-11-21T15:03:22.886Z,98659.16
2022-11-21T15:06:07.397Z,98656.94
2022-11-21T15:11:32.840Z,98654.34
2022-11-21T15:14:15.346Z,98653.66
2022-11-21T15:16:48.167Z,98640.47
2022-11-21T15:19:25.910Z,98649.06
2022-11-21T15:21:56.544Z,98642.13
2022-11-21T15:24:43.419Z,98638.19
2022-11-21T15:27:26.101Z,98640.47
2022-11-21T15:30:11.375Z,98635.13
2022-11-21T15:33:01.268Z,98635.72
2022-11-21T15:35:48.126Z,98641.00
2022-11-21T15:38:27.898Z,98643.28
2022-11-21T15:41:01.604Z,98639.09
2022-11-21T15:43:40.811Z,98635.34
2022-11-21T15:46:15.481Z,98635.44
2022-11-21T15:49:31.529Z,98629.91
2022-11-21T15:52:12.807Z,98621.28
2022-11-21T15:54:40.191Z,98618.91
2022-11-21T15:57:09.165Z,98614.00
2022-11-21T15:59:36.429Z,98621.78
2022-11-21T16:02:03.554Z,98624.56
2022-11-21T16:04:30.844Z,98617.41
2022-11-21T16:07:00.325Z,98623.41
2022-11-21T16:09:29.742Z,98619.00
2022-11-21T16:11:56.976Z,98616.25
2022-11-21T16:14:24.184Z,98623.28
2022-11-21T16:16:51.118Z,98620.81
2022-11-21T16:19:19.178Z,98618.66
2022-11-21T16:21:46.260Z,98617.16
2022-11-21T16:24:13.844Z,98614.19
2022-11-21T16:26:40.878Z,98615.44
2022-11-21T16:29:10.792Z,98613.47
2022-11-21T16:31:38.020Z,98609.25
2022-11-21T16:34:05.618Z,98615.25
2022-11-21T16:36:32.854Z,98609.78
2022-11-21T16:39:09.047Z,98615.00
2022-11-21T16:41:39.477Z,98614.75
2022-11-21T16:44:16.437Z,98612.53
2022-11-21T16:46:48.511Z,98619.00
2022-11-21T16:49:20.652Z,98618.72
2022-11-21T16:51:47.750Z,98620.47
2022-11-21T16:54:18.109Z,98620.22
2022-11-21T16:56:47.107Z,98622.44
2022-11-21T16:59:15.105Z,98619.94
2022-11-21T17:01:43.460Z,98634.63
2022-11-21T17:04:16.796Z,98630.38
2022-11-21T17:06:47.016Z,98625.16
2022-11-21T17:09:16.686Z,98628.88
2022-11-21T17:11:44.555Z,98626.66
2022-11-21T17:14:14.309Z,98622.44
2022-11-21T17:16:42.213Z,98619.97
2022-11-21T17:19:12.364Z,98632.44
2022-11-21T17:21:39.496Z,98630.91
2022-11-21T17:24:07.411Z,98628.66
2022-11-21T17:26:38.617Z,98629.41
2022-11-21T17:29:06.315Z,98624.94
2022-11-21T17:31:34.802Z,98626.41
2022-11-21T17:34:02.778Z,98630.16
2022-11-21T17:36:31.247Z,98630.41
2022-11-21T17:38:58.971Z,98625.66
2022-11-21T17:41:27.411Z,98615.97
2022-11-21T17:43:59.789Z,98619.97
2022-11-21T17:46:29.037Z,98620.19
2022-11-21T17:54:20.178Z,98619.13
2022-11-21T17:56:53.916Z,98607.69
2022-11-21T17:59:24.211Z,98612.88
2022-11-21T18:01:54.434Z,98601.94
2022-11-21T18:04:25.516Z,98605.41
2022-11-21T18:06:53.583Z,98596.00
2022-11-21T18:09:21.609Z,98595.97
2022-11-21T18:11:49.672Z,98603.16
2022-11-21T18:14:17.478Z,98602.91
2022-11-21T18:16:52.581Z,98596.69
2022-11-21T18:19:21.831Z,98592.22
2022-11-21T18:21:50.583Z,98589.72
2022-11-21T18:24:18.520Z,98591.91
2022-11-21T18:26:47.558Z,98591.13
2022-11-21T18:32:05.852Z,98610.63
2022-11-21T18:34:33.830Z,98601.16
2022-11-21T18:37:02.100Z,98594.91
2022-11-21T18:39:31.697Z,98597.59
2022-11-21T18:42:00.093Z,98609.91
2022-11-21T18:44:28.079Z,98610.34
2022-11-21T18:46:56.437Z,98616.25
2022-11-21T18:49:24.182Z,98615.75
2022-11-21T18:51:54.965Z,98617.88
2022-11-21T18:54:22.943Z,98620.66
2022-11-21T18:56:51.495Z,98614.66
2022-11-21T18:59:19.542Z,98601.53
2022-11-21T19:01:47.601Z,98600.78
2022-11-21T19:04:15.664Z,98602.94
2022-11-21T19:06:44.250Z,98606.09
2022-11-21T19:09:15.292Z,98592.91
2022-11-21T19:11:43.172Z,98588.22
2022-11-21T19:14:13.560Z,98599.56
2022-11-21T19:16:42.188Z,98592.84
2022-11-21T19:22:05.054Z,98578.69
2022-11-21T19:24:34.184Z,98571.97
2022-11-21T19:27:02.464Z,98575.91
2022-11-21T19:29:32.188Z,98578.13
2022-11-21T19:32:00.832Z,98576.81
2022-11-21T19:34:29.151Z,98570.34
2022-11-21T19:36:57.301Z,98568.53
2022-11-21T19:39:25.204Z,98556.09
2022-11-21T19:41:53.544Z,98548.09
2022-11-21T19:44:26.097Z,98546.81
2022-11-21T19:46:54.515Z,98551.94
2022-11-21T19:49:22.515Z,98553.88
2022-11-21T19:51:52.072Z,98550.06
2022-11-21T19:54:21.514Z,98557.47
2022-11-21T19:56:49.541Z,98555.47
2022-11-21T19:59:16.849Z,98548.25
2022-11-21T20:01:51.151Z,98540.84
2022-11-21T20:04:24.253Z,98545.00
2022-11-21T20:06:52.442Z,98539.50
2022-11-21T20:09:22.557Z,98531.75
2022-11-21T20:11:55.455Z,98527.47
2022-11-21T20:14:23.357Z,98519.22
2022-11-21T20:16:53.482Z,98512.91
2022-11-21T20:19:23.320Z,98507.03
2022-11-21T20:21:55.124Z,98512.75
2022-11-21T20:24:23.362Z,98515.47
2022-11-21T20:26:53.488Z,98514.41
2022-11-21T20:29:24.983Z,98502.66
2022-11-21T20:31:54.899Z,98518.66
2022-11-21T20:34:24.264Z,98510.41
2022-11-21T20:36:54.227Z,98508.81
2022-11-21T20:39:22.468Z,98510.19
2022-11-21T20:41:53.299Z,98505.94
2022-11-21T20:47:13.237Z,98501.75
2022-11-21T20:50:05.022Z,98497.00
2022-11-21T20:55:22.467Z,98493.72
2022-11-21T20:57:50.422Z,98501.41
2022-11-21T21:00:19.398Z,98484.22
2022-11-21T21:02:47.588Z,98483.63
2022-11-21T21:05:17.155Z,98486.50
2022-11-21T21:07:45.067Z,98483.59
2022-11-21T21:10:12.897Z,98486.03
2022-11-21T21:12:45.721Z,98488.19
2022-11-21T21:15:16.192Z,98484.97
2022-11-21T21:17:44.108Z,98481.47
2022-11-21T21:20:11.942Z,98476.47
2022-11-21T21:22:39.877Z,98479.69
2022-11-21T21:25:07.850Z,98475.66
2022-11-21T21:27:35.487Z,98475.31
2022-11-21T21:30:06.064Z,98479.63
2022-11-21T21:32:36.038Z,98468.75
2022-11-21T21:35:03.097Z,98471.72
2022-11-21T21:37:30.496Z,98467.94
2022-11-21T21:39:57.507Z,98453.09
2022-11-21T21:42:25.168Z,98444.88
2022-11-21T21:44:52.251Z,98453.53
2022-11-21T21:47:21.957Z,98453.78
2022-11-21T21:49:49.143Z,98449.47
2022-11-21T21:52:17.679Z,98447.28
2022-11-21T21:54:44.636Z,98441.28
2022-11-21T21:57:11.964Z,98439.50
2022-11-21T21:59:38.963Z,98439.44
2022-11-21T22:02:06.752Z,98440.88
2022-11-21T22:04:34.124Z,98442.44
2022-11-21T22:07:01.526Z,98448.69
2022-11-21T22:09:30.029Z,98447.75
2022-11-21T22:11:57.600Z,98436.44
2022-11-21T22:14:26.969Z,98424.63
2022-11-21T22:16:55.052Z,98425.84
2022-11-21T22:19:22.231Z,98427.66
2022-11-21T22:21:49.544Z,98419.75
2022-11-21T22:24:25.495Z,98422.78
2022-11-21T22:26:56.638Z,98425.63
2022-11-21T22:29:24.142Z,98423.97
2022-11-21T22:31:51.679Z,98419.59
2022-11-21T22:34:18.769Z,98417.97
2022-11-21T22:36:49.200Z,98426.19
2022-11-21T22:39:16.770Z,98419.06
2022-11-21T22:41:44.064Z,98419.56
2022-11-21T22:44:11.087Z,98418.06
2022-11-21T22:46:38.606Z,98411.66
2022-11-21T22:49:05.593Z,98418.84
2022-11-21T22:51:33.008Z,98412.91
2022-11-21T22:54:00.116Z,98408.44
2022-11-21T22:56:28.003Z,98403.22
2022-11-21T22:58:56.126Z,98394.78
2022-11-21T23:01:25.758Z,98397.03
2022-11-21T23:03:53.132Z,98377.91
2022-11-21T23:06:23.816Z,98385.34
2022-11-21T23:08:55.521Z,98369.22
2022-11-21T23:11:26.249Z,98359.75
2022-11-21T23:13:56.716Z,98356.78
2022-11-21T23:16:24.576Z,98364.72
2022-11-21T23:18:53.607Z,98364.75
2022-11-21T23:21:21.479Z,98356.53
2022-11-21T23:23:48.710Z,98348.84
2022-11-21T23:26:16.004Z,98351.78
2022-11-21T23:28:43.059Z,98350.09
2022-11-21T23:31:10.591Z,98341.88
2022-11-21T23:33:37.944Z,98336.41
2022-11-21T23:36:05.714Z,98330.22
2022-11-21T23:38:32.780Z,98322.78
2022-11-21T23:41:00.126Z,98324.53
2022-11-21T23:43:27.385Z,98331.97
2022-11-21T23:45:54.984Z,98315.84
2022-11-21T23:48:24.096Z,98314.34
2022-11-21T23:50:52.034Z,98314.59
2022-11-21T23:53:19.536Z,98312.84
2022-11-21T23:55:47.217Z,98306.16
2022-11-21T23:58:14.663Z,98300.19
